Time;durP1;ratioP1;P1;durP2;ratioP2;P2;SDS_P1;SDS_P2;PMS_P1;PMS_P2;Temp;Humidity;BMP_temperature;BMP_pressure;BME280_temperature;BME280_humidity;BME280_pressure;Samples;Min_cycle;Max_cycle;Signal;HPM_P1;HPM_P2
2023/08/14 00:00:22;;;;;;;3.50;2.40;;;20.40;86.50;;;;;;5073574;28;20464;-58
2023/08/14 00:02:49;;;;;;;3.13;2.17;;;20.40;86.70;;;;;;5074160;28;20445;-58
2023/08/14 00:05:17;;;;;;;4.93;2.80;;;20.40;87.00;;;;;;5073803;28;20484;-59
2023/08/14 00:07:44;;;;;;;3.10;2.43;;;20.30;87.10;;;;;;5073838;28;20436;-59
2023/08/14 00:10:10;;;;;;;4.20;2.67;;;20.30;87.30;;;;;;5073718;28;20452;-58
2023/08/14 00:12:37;;;;;;;6.10;2.30;;;20.30;87.60;;;;;;5073707;28;20450;-58
2023/08/14 00:15:04;;;;;;;4.00;2.70;;;20.20;87.70;;;;;;5073806;28;20432;-58
2023/08/14 00:17:31;;;;;;;3.87;2.30;;;20.20;87.90;;;;;;5073720;28;20445;-58
2023/08/14 00:19:58;;;;;;;3.20;2.80;;;20.20;88.00;;;;;;5073190;28;20436;-58
2023/08/14 00:22:26;;;;;;;2.60;2.10;;;20.20;88.20;;;;;;5073300;28;20456;-58
2023/08/14 00:24:52;;;;;;;5.17;2.53;;;20.10;88.20;;;;;;5073627;28;20487;-58
2023/08/14 00:27:19;;;;;;;4.97;2.83;;;20.10;88.50;;;;;;5074683;28;20449;-58
2023/08/14 00:29:46;;;;;;;4.00;2.43;;;20.10;88.60;;;;;;5073570;28;20444;-59
2023/08/14 00:32:12;;;;;;;5.00;2.20;;;20.10;88.60;;;;;;5073180;28;21001;-58
2023/08/14 00:34:39;;;;;;;5.30;2.33;;;20.10;88.70;;;;;;5073617;28;20443;-58
2023/08/14 00:37:06;;;;;;;7.10;2.00;;;20.00;88.70;;;;;;5073615;28;20485;-58
2023/08/14 00:39:34;;;;;;;3.87;2.60;;;20.10;88.90;;;;;;5073276;28;20453;-58
2023/08/14 00:42:00;;;;;;;4.73;2.27;;;20.00;89.00;;;;;;5072861;28;20468;-58
2023/08/14 00:44:30;;;;;;;2.73;2.00;;;20.00;89.10;;;;;;5073103;28;20448;-58
2023/08/14 00:46:56;;;;;;;5.47;2.20;;;20.00;89.70;;;;;;5073047;28;20534;-58
2023/08/14 00:49:23;;;;;;;3.33;2.27;;;20.00;89.60;;;;;;5073223;28;20449;-58
2023/08/14 00:51:50;;;;;;;2.83;2.30;;;19.90;89.70;;;;;;5073152;28;20460;-58
2023/08/14 00:54:17;;;;;;;4.27;2.50;;;19.90;89.80;;;;;;5073209;28;20562;-58
2023/08/14 00:56:45;;;;;;;4.50;2.33;;;19.90;89.90;;;;;;5073177;28;20547;-58
2023/08/14 00:59:12;;;;;;;2.77;2.23;;;19.80;89.90;;;;;;5073248;28;20440;-58
2023/08/14 01:01:39;;;;;;;4.40;2.27;;;19.80;90.00;;;;;;5073183;28;20472;-58
2023/08/14 01:04:06;;;;;;;4.40;2.43;;;19.70;90.00;;;;;;5073187;28;20441;-58
2023/08/14 01:06:32;;;;;;;4.00;2.43;;;19.70;90.10;;;;;;5073065;28;20907;-58
2023/08/14 01:08:59;;;;;;;4.30;2.33;;;19.70;90.20;;;;;;5073116;28;20444;-58
2023/08/14 01:11:35;;;;;;;5.57;1.90;;;19.70;90.10;;;;;;5073035;28;20468;-58
2023/08/14 01:14:10;;;;;;;6.20;2.70;;;19.60;90.10;;;;;;5073184;28;20429;-58
2023/08/14 01:16:42;;;;;;;3.93;2.60;;;19.60;90.20;;;;;;5072754;28;20511;-58
2023/08/14 01:19:11;;;;;;;11.50;2.73;;;19.60;90.30;;;;;;5073118;28;20417;-58
2023/08/14 01:21:48;;;;;;;4.00;2.20;;;19.60;90.30;;;;;;5072601;28;20824;-58
2023/08/14 01:24:22;;;;;;;4.40;2.40;;;19.60;90.30;;;;;;5072968;28;20435;-58
2023/08/14 01:26:52;;;;;;;8.00;2.90;;;19.60;90.40;;;;;;5072909;28;20464;-58
2023/08/14 01:29:19;;;;;;;2.93;2.60;;;19.50;90.50;;;;;;5072621;28;20858;-58
2023/08/14 01:31:45;;;;;;;9.13;2.53;;;19.50;90.60;;;;;;5072763;28;20464;-58
2023/08/14 01:34:13;;;;;;;6.50;2.50;;;19.50;91.00;;;;;;5072810;28;20449;-58
2023/08/14 01:36:44;;;;;;;5.63;2.20;;;19.50;90.90;;;;;;5072474;28;20953;-58
2023/08/14 01:39:15;;;;;;;3.83;2.50;;;19.40;90.90;;;;;;5072834;28;20436;-58
2023/08/14 01:41:50;;;;;;;9.40;2.40;;;19.40;90.90;;;;;;5072403;28;20899;-58
2023/08/14 01:44:21;;;;;;;5.33;2.20;;;19.40;91.00;;;;;;5072667;28;20795;-59
2023/08/14 01:46:49;;;;;;;6.97;2.30;;;19.40;91.00;;;;;;5073967;28;20464;-59
2023/08/14 01:49:19;;;;;;;7.03;2.70;;;19.40;91.00;;;;;;5073888;28;20441;-59
2023/08/14 01:51:47;;;;;;;6.50;2.80;;;19.40;91.10;;;;;;5074078;28;20464;-58
2023/08/14 01:54:14;;;;;;;7.87;2.60;;;19.30;91.10;;;;;;5074741;28;20973;-58
2023/08/14 01:56:40;;;;;;;6.30;2.97;;;19.30;91.20;;;;;;5076037;28;20805;-58
2023/08/14 01:59:07;;;;;;;8.30;3.33;;;19.30;91.40;;;;;;5076318;28;20440;-58
2023/08/14 02:01:35;;;;;;;7.43;2.87;;;19.30;91.40;;;;;;5076076;28;20507;-58
2023/08/14 02:04:02;;;;;;;6.67;3.27;;;19.30;91.40;;;;;;5076125;28;20458;-58
2023/08/14 02:06:31;;;;;;;6.37;2.40;;;19.30;91.50;;;;;;5076046;28;20479;-58
2023/08/14 02:08:58;;;;;;;6.13;2.80;;;19.30;91.60;;;;;;5075782;28;20977;-58
2023/08/14 02:11:24;;;;;;;9.20;3.30;;;19.30;91.60;;;;;;5075966;28;20457;-58
2023/08/14 02:13:51;;;;;;;6.87;2.77;;;19.20;91.50;;;;;;5076029;28;20441;-58
2023/08/14 02:16:18;;;;;;;5.27;3.00;;;19.20;91.50;;;;;;5075952;28;20444;-58
2023/08/14 02:18:46;;;;;;;6.80;2.57;;;19.20;91.50;;;;;;5075902;28;20451;-58
2023/08/14 02:21:12;;;;;;;10.20;2.30;;;19.20;91.60;;;;;;5075470;28;20484;-58
2023/08/14 02:23:39;;;;;;;11.10;3.13;;;19.10;91.60;;;;;;5075845;28;20440;-58
2023/08/14 02:26:06;;;;;;;7.47;2.90;;;19.10;91.70;;;;;;5075762;28;20476;-58
2023/08/14 02:28:32;;;;;;;11.13;3.40;;;19.10;91.80;;;;;;5076294;28;20447;-58
2023/08/14 02:31:02;;;;;;;11.83;2.53;;;19.00;91.80;;;;;;5075684;28;20472;-58
2023/08/14 02:33:29;;;;;;;7.53;2.83;;;18.90;91.80;;;;;;5075404;28;20806;-58
2023/08/14 02:35:57;;;;;;;8.70;3.03;;;18.90;91.70;;;;;;5075621;28;20819;-58
2023/08/14 02:38:24;;;;;;;11.13;3.87;;;18.90;91.70;;;;;;5075318;28;20974;-58
2023/08/14 02:40:50;;;;;;;10.27;2.93;;;18.80;91.70;;;;;;5075619;28;20474;-58
2023/08/14 02:43:17;;;;;;;9.03;2.97;;;18.80;92.10;;;;;;5075662;28;20445;-58
2023/08/14 02:45:44;;;;;;;7.47;2.90;;;18.80;91.80;;;;;;5075428;28;20491;-58
2023/08/14 02:48:10;;;;;;;7.93;3.60;;;18.80;91.90;;;;;;5075499;28;20447;-58
2023/08/14 02:50:37;;;;;;;12.53;3.93;;;18.80;91.80;;;;;;5075758;28;20475;-58
2023/08/14 02:53:05;;;;;;;14.10;3.23;;;18.80;91.80;;;;;;5075508;28;20498;-58
2023/08/14 02:55:32;;;;;;;12.60;3.37;;;18.80;91.90;;;;;;5075575;28;20546;-58
2023/08/14 02:57:59;;;;;;;19.37;3.40;;;18.80;91.90;;;;;;5075571;28;20481;-58
2023/08/14 03:00:26;;;;;;;21.60;3.93;;;18.80;91.90;;;;;;5075216;28;20457;-58
2023/08/14 03:02:52;;;;;;;10.13;3.50;;;18.80;91.90;;;;;;5075079;28;20543;-58
2023/08/14 03:05:19;;;;;;;16.13;3.50;;;18.80;92.00;;;;;;5074494;28;20447;-58
2023/08/14 03:07:46;;;;;;;10.47;2.90;;;18.70;92.10;;;;;;5075122;28;20479;-58
2023/08/14 03:10:14;;;;;;;8.13;2.60;;;18.70;92.00;;;;;;5074950;28;20448;-58
2023/08/14 03:12:41;;;;;;;8.93;2.40;;;18.70;92.10;;;;;;5074619;28;20441;-58
2023/08/14 03:15:08;;;;;;;9.00;2.87;;;18.70;92.30;;;;;;5074347;28;20818;-58
2023/08/14 03:17:35;;;;;;;9.50;3.50;;;18.70;92.40;;;;;;5074834;28;20452;-58
2023/08/14 03:20:03;;;;;;;4.87;2.43;;;18.70;92.40;;;;;;5074409;28;20896;-58
2023/08/14 03:22:30;;;;;;;10.90;3.47;;;18.70;92.40;;;;;;5074379;28;20453;-58
2023/08/14 03:24:57;;;;;;;11.13;2.73;;;18.70;92.40;;;;;;5074413;28;20440;-58
2023/08/14 03:27:25;;;;;;;8.43;2.53;;;18.60;92.50;;;;;;5074241;28;21022;-58
2023/08/14 03:29:52;;;;;;;8.63;2.83;;;18.60;92.40;;;;;;5074505;28;20445;-58
2023/08/14 03:32:18;;;;;;;7.70;2.97;;;18.60;92.50;;;;;;5074494;28;20472;-58
2023/08/14 03:34:45;;;;;;;11.07;3.00;;;18.60;92.60;;;;;;5074413;28;20865;-58
2023/08/14 03:37:12;;;;;;;8.30;2.77;;;18.50;92.50;;;;;;5074375;28;20441;-58
2023/08/14 03:39:39;;;;;;;10.00;2.70;;;18.50;92.50;;;;;;5074335;28;20817;-58
2023/08/14 03:42:06;;;;;;;7.30;3.00;;;18.50;92.40;;;;;;5074309;28;20471;-58
2023/08/14 03:44:34;;;;;;;5.43;2.50;;;18.50;92.40;;;;;;5074023;28;20960;-58
2023/08/14 03:47:01;;;;;;;10.80;2.70;;;18.50;92.40;;;;;;5074148;28;20473;-58
2023/08/14 03:49:27;;;;;;;6.00;2.63;;;18.40;92.50;;;;;;5073900;28;20799;-58
2023/08/14 03:51:54;;;;;;;9.93;2.67;;;18.40;92.60;;;;;;5074096;28;20473;-58
2023/08/14 03:54:21;;;;;;;6.40;2.80;;;18.40;92.70;;;;;;5074117;28;20444;-58
2023/08/14 03:56:47;;;;;;;6.70;3.17;;;18.40;92.70;;;;;;5073751;28;20952;-58
2023/08/14 03:59:14;;;;;;;8.23;2.80;;;18.40;92.80;;;;;;5074024;28;20440;-58
2023/08/14 04:01:43;;;;;;;7.60;2.77;;;18.40;92.80;;;;;;5073913;28;20465;-58
2023/08/14 04:04:09;;;;;;;9.50;4.77;;;18.30;92.90;;;;;;5073878;28;20448;-58
2023/08/14 04:06:36;;;;;;;9.90;2.80;;;18.30;93.00;;;;;;5073487;28;20885;-58
2023/08/14 04:09:03;;;;;;;5.97;3.07;;;18.30;93.10;;;;;;5073983;28;20436;-58
2023/08/14 04:11:30;;;;;;;13.00;3.93;;;18.20;93.00;;;;;;5073723;28;20460;-58
2023/08/14 04:13:57;;;;;;;7.77;2.77;;;18.20;93.10;;;;;;5073741;28;20498;-58
2023/08/14 04:16:40;;;;;;;8.73;3.23;;;18.20;93.30;;;;;;5073838;28;20444;-58
2023/08/14 04:19:09;;;;;;;4.73;2.60;;;18.20;93.30;;;;;;5072916;28;20921;-58
2023/08/14 04:21:36;;;;;;;6.50;2.20;;;18.20;93.40;;;;;;5073320;28;20515;-58
2023/08/14 04:24:03;;;;;;;5.13;2.33;;;18.20;93.40;;;;;;5073575;28;20444;-58
2023/08/14 04:26:29;;;;;;;8.10;3.37;;;18.20;93.50;;;;;;5073505;28;20480;-58
2023/08/14 04:28:56;;;;;;;5.40;3.00;;;18.20;93.40;;;;;;5073552;28;20444;-58
2023/08/14 04:31:22;;;;;;;7.63;2.70;;;18.20;93.40;;;;;;5073744;28;20465;-58
2023/08/14 04:33:49;;;;;;;3.90;2.43;;;18.20;93.70;;;;;;5073550;28;20490;-58
2023/08/14 04:36:17;;;;;;;6.67;2.87;;;18.20;93.40;;;;;;5073510;28;20464;-58
2023/08/14 04:38:44;;;;;;;4.70;2.67;;;18.20;93.50;;;;;;5073390;28;20441;-58
2023/08/14 04:41:10;;;;;;;4.20;2.23;;;18.20;93.60;;;;;;5073319;28;20464;-58
2023/08/14 04:43:37;;;;;;;4.87;3.33;;;18.20;93.60;;;;;;5073404;28;20448;-58
2023/08/14 04:46:10;;;;;;;9.13;2.93;;;18.10;93.50;;;;;;5072982;28;20972;-58
2023/08/14 04:48:36;;;;;;;6.60;3.00;;;18.10;93.60;;;;;;5073297;28;20436;-58
2023/08/14 04:51:03;;;;;;;6.10;2.70;;;18.20;93.70;;;;;;5073170;28;20468;-58
2023/08/14 04:53:31;;;;;;;3.80;2.53;;;18.20;93.80;;;;;;5073290;28;20448;-58
2023/08/14 04:55:58;;;;;;;5.80;2.67;;;18.10;93.80;;;;;;5073686;28;20452;-58
2023/08/14 04:58:25;;;;;;;4.63;3.03;;;18.10;93.90;;;;;;5073184;28;20455;-58
2023/08/14 05:00:51;;;;;;;5.20;2.43;;;18.20;94.10;;;;;;5073168;28;20465;-58
2023/08/14 05:03:18;;;;;;;6.90;3.37;;;18.20;94.10;;;;;;5073156;28;20801;-58
2023/08/14 05:05:51;;;;;;;4.20;2.97;;;18.20;94.10;;;;;;5073132;28;20445;-58
2023/08/14 05:08:18;;;;;;;5.00;3.00;;;18.20;94.20;;;;;;5073047;28;20473;-58
2023/08/14 05:10:50;;;;;;;4.53;2.77;;;18.20;94.40;;;;;;5073604;28;20464;-58
2023/08/14 05:13:17;;;;;;;4.27;2.43;;;18.20;94.40;;;;;;5073071;28;20435;-58
2023/08/14 05:15:43;;;;;;;4.27;2.90;;;18.20;94.50;;;;;;5073048;28;20448;-58
2023/08/14 05:18:10;;;;;;;7.93;2.70;;;18.20;94.80;;;;;;5072964;28;20808;-58
2023/08/14 05:20:37;;;;;;;6.03;2.80;;;18.30;95.00;;;;;;5072665;28;20472;-58
2023/08/14 05:23:04;;;;;;;8.80;2.90;;;18.30;95.10;;;;;;5073055;28;20429;-58
2023/08/14 05:25:30;;;;;;;10.33;3.20;;;18.40;95.40;;;;;;5072986;28;20441;-58
2023/08/14 05:27:58;;;;;;;8.03;3.00;;;18.40;95.30;;;;;;5072874;28;20483;-58
2023/08/14 05:30:25;;;;;;;3.90;2.90;;;18.50;95.60;;;;;;5075922;28;20468;-58
2023/08/14 05:32:52;;;;;;;10.87;3.53;;;18.50;95.80;;;;;;5076500;28;20819;-58
2023/08/14 05:35:23;;;;;;;4.30;2.80;;;18.60;95.80;;;;;;5076794;28;20452;-58
2023/08/14 05:37:52;;;;;;;4.60;3.30;;;18.70;95.90;;;;;;5074831;28;20444;-58
2023/08/14 05:40:19;;;;;;;6.87;3.60;;;18.80;95.80;;;;;;5076455;28;20551;-58
2023/08/14 05:42:46;;;;;;;6.40;3.00;;;18.90;96.00;;;;;;5076618;28;20542;-58
2023/08/14 05:45:13;;;;;;;6.63;2.77;;;19.00;96.10;;;;;;5076634;28;20444;-58
2023/08/14 05:47:40;;;;;;;7.30;3.57;;;19.20;96.20;;;;;;5076193;28;20864;-58
2023/08/14 05:50:07;;;;;;;8.33;4.07;;;19.30;96.10;;;;;;5076110;28;20811;-58
2023/08/14 05:52:34;;;;;;;7.67;3.10;;;19.40;95.80;;;;;;5061959;28;20843;-58
2023/08/14 05:55:01;;;;;;;6.93;3.50;;;19.50;95.80;;;;;;5056039;28;20957;-58
2023/08/14 05:57:27;;;;;;;8.87;3.33;;;19.60;95.60;;;;;;5056146;28;20951;-58
2023/08/14 05:59:54;;;;;;;7.30;2.87;;;19.70;95.30;;;;;;5055977;28;20935;-58
2023/08/14 06:02:22;;;;;;;7.60;3.47;;;19.80;95.30;;;;;;5056287;28;20445;-58
2023/08/14 06:04:49;;;;;;;3.03;2.43;;;19.90;95.20;;;;;;5055997;28;20441;-58
2023/08/14 06:07:16;;;;;;;5.30;3.03;;;19.90;95.20;;;;;;5056138;28;20520;-58
2023/08/14 06:09:43;;;;;;;4.80;3.20;;;20.00;95.10;;;;;;5056188;28;20465;-58
2023/08/14 06:12:09;;;;;;;11.03;3.27;;;20.10;94.90;;;;;;5056025;28;20468;-57
2023/08/14 06:14:36;;;;;;;6.33;2.80;;;20.20;94.90;;;;;;5056049;28;20454;-58
2023/08/14 06:17:03;;;;;;;6.43;3.30;;;20.30;94.80;;;;;;5055688;28;20843;-58
2023/08/14 06:19:31;;;;;;;12.03;3.20;;;20.30;94.50;;;;;;5055976;28;20444;-58
2023/08/14 06:21:58;;;;;;;6.33;3.20;;;20.50;94.70;;;;;;5055571;28;20552;-58
2023/08/14 06:24:28;;;;;;;7.23;3.40;;;20.60;94.50;;;;;;5055850;28;20545;-58
2023/08/14 06:26:55;;;;;;;8.27;3.10;;;20.70;94.60;;;;;;5055814;28;20473;-58
2023/08/14 06:29:22;;;;;;;4.60;3.30;;;20.70;94.40;;;;;;5055776;28;20444;-58
2023/08/14 06:31:49;;;;;;;5.67;3.20;;;20.80;94.40;;;;;;5055673;28;20457;-58
2023/08/14 06:34:16;;;;;;;5.13;3.07;;;20.90;94.30;;;;;;5055710;28;20445;-58
2023/08/14 06:36:44;;;;;;;13.67;4.30;;;21.00;94.00;;;;;;5055635;28;20448;-58
2023/08/14 06:39:11;;;;;;;7.23;3.13;;;21.10;93.40;;;;;;5055524;28;20444;-58
2023/08/14 06:41:37;;;;;;;10.20;3.40;;;21.30;93.30;;;;;;5054476;28;20473;-58
2023/08/14 06:44:04;;;;;;;5.73;3.20;;;21.40;93.10;;;;;;5055538;28;20453;-58
2023/08/14 06:46:31;;;;;;;10.37;3.47;;;21.60;92.80;;;;;;5055387;28;20446;-58
2023/08/14 06:48:58;;;;;;;9.67;3.93;;;21.80;92.20;;;;;;5055490;28;20449;-58
2023/08/14 06:51:24;;;;;;;5.30;2.80;;;21.90;91.60;;;;;;5055360;28;20476;-58
2023/08/14 06:53:53;;;;;;;8.33;2.90;;;22.00;91.30;;;;;;5055154;28;20457;-59
2023/08/14 06:56:20;;;;;;;5.87;4.10;;;22.10;90.90;;;;;;5055004;28;21026;-58
2023/08/14 06:58:46;;;;;;;11.50;3.90;;;22.30;90.60;;;;;;5055257;28;20469;-58
2023/08/14 07:01:13;;;;;;;4.43;3.30;;;22.40;91.00;;;;;;5055122;28;20454;-59
2023/08/14 07:03:40;;;;;;;5.97;3.90;;;22.40;91.00;;;;;;5055435;28;20449;-58
2023/08/14 07:06:06;;;;;;;7.00;3.70;;;22.50;90.90;;;;;;5055151;28;20445;-59
2023/08/14 07:08:33;;;;;;;10.87;4.23;;;22.60;90.80;;;;;;5054973;28;20473;-58
2023/08/14 07:11:01;;;;;;;9.90;3.83;;;22.60;90.70;;;;;;5054483;28;20476;-59
2023/08/14 07:13:28;;;;;;;8.30;3.30;;;22.70;90.70;;;;;;5054536;28;20962;-58
2023/08/14 07:15:54;;;;;;;10.17;4.17;;;22.70;90.50;;;;;;5054720;28;20820;-59
2023/08/14 07:18:21;;;;;;;6.70;4.10;;;22.80;90.40;;;;;;5054916;28;20442;-59
2023/08/14 07:20:49;;;;;;;7.60;3.50;;;22.80;90.00;;;;;;5054686;28;20473;-59
2023/08/14 07:23:16;;;;;;;7.00;3.70;;;22.80;89.60;;;;;;5054863;28;20449;-59
2023/08/14 07:25:42;;;;;;;9.70;3.77;;;22.90;89.70;;;;;;5054793;28;20446;-59
2023/08/14 07:28:11;;;;;;;8.53;3.30;;;23.00;89.80;;;;;;5054454;28;20488;-59
2023/08/14 07:30:38;;;;;;;8.67;3.80;;;23.10;89.30;;;;;;5054617;28;20470;-59
2023/08/14 07:33:05;;;;;;;6.33;3.60;;;23.20;88.70;;;;;;5054593;28;20445;-59
2023/08/14 07:35:32;;;;;;;9.80;3.50;;;23.30;87.80;;;;;;5054295;28;20446;-59
2023/08/14 07:37:59;;;;;;;7.17;3.20;;;23.40;87.20;;;;;;5054485;28;20453;-59
2023/08/14 07:40:25;;;;;;;10.57;4.40;;;23.50;86.30;;;;;;5054453;28;20465;-59
2023/08/14 07:42:52;;;;;;;9.53;4.20;;;23.60;85.90;;;;;;5054097;28;20795;-59
2023/08/14 07:45:20;;;;;;;6.83;3.77;;;23.60;86.20;;;;;;5053883;28;20935;-59
2023/08/14 07:47:47;;;;;;;8.93;3.57;;;23.60;85.60;;;;;;5055053;28;20504;-59
2023/08/14 07:50:14;;;;;;;6.27;3.33;;;23.70;85.60;;;;;;5054170;28;20441;-59
2023/08/14 07:52:40;;;;;;;6.77;4.00;;;23.60;84.90;;;;;;5053935;28;20445;-59
2023/08/14 07:55:07;;;;;;;7.17;3.60;;;23.60;84.60;;;;;;5054196;28;20473;-59
2023/08/14 07:57:34;;;;;;;7.47;3.60;;;23.70;85.00;;;;;;5053817;28;20445;-59
2023/08/14 08:00:01;;;;;;;12.63;3.70;;;23.80;83.80;;;;;;5054014;28;20450;-59
2023/08/14 08:02:29;;;;;;;9.10;3.97;;;23.90;83.00;;;;;;5053583;28;20826;-59
2023/08/14 08:04:56;;;;;;;11.50;3.93;;;24.00;82.80;;;;;;5053986;28;20446;-59
2023/08/14 08:07:22;;;;;;;4.43;3.40;;;24.10;82.80;;;;;;5053848;28;20480;-59
2023/08/14 08:09:49;;;;;;;9.20;4.33;;;24.10;82.50;;;;;;5053643;28;20935;-59
2023/08/14 08:12:16;;;;;;;6.83;4.33;;;24.30;82.40;;;;;;5053808;28;20472;-59
2023/08/14 08:14:42;;;;;;;8.20;3.60;;;24.50;81.80;;;;;;5053798;28;20445;-59
2023/08/14 08:17:09;;;;;;;10.80;4.43;;;24.70;81.40;;;;;;5053742;28;20442;-59
2023/08/14 08:19:37;;;;;;;7.83;4.20;;;25.00;80.50;;;;;;5053795;28;20503;-59
2023/08/14 08:22:04;;;;;;;8.83;3.90;;;25.30;79.70;;;;;;5053285;28;20485;-59
2023/08/14 08:24:31;;;;;;;10.27;4.50;;;25.60;78.80;;;;;;5053629;28;20492;-59
2023/08/14 08:26:57;;;;;;;7.73;3.53;;;25.90;77.60;;;;;;5053480;28;20449;-59
2023/08/14 08:29:24;;;;;;;6.33;3.40;;;26.20;76.20;;;;;;5053156;28;20441;-59
2023/08/14 08:31:51;;;;;;;7.70;3.40;;;26.50;74.60;;;;;;5053448;28;20536;-59
2023/08/14 08:34:18;;;;;;;5.87;3.57;;;26.80;72.00;;;;;;5053995;28;20800;-59
2023/08/14 08:36:45;;;;;;;8.80;3.00;;;27.10;70.70;;;;;;5053263;28;20450;-59
2023/08/14 08:39:12;;;;;;;4.60;3.40;;;27.30;68.60;;;;;;5053372;28;20453;-59
2023/08/14 08:41:41;;;;;;;7.73;3.13;;;27.50;65.70;;;;;;5053370;28;20504;-59
2023/08/14 08:44:11;;;;;;;6.93;2.93;;;27.60;63.20;;;;;;5053335;28;20445;-59
2023/08/14 08:46:46;;;;;;;6.93;2.60;;;27.80;63.20;;;;;;5053337;28;20456;-59
2023/08/14 08:49:14;;;;;;;7.53;2.97;;;28.00;63.20;;;;;;5053279;28;20484;-59
2023/08/14 08:51:41;;;;;;;5.80;3.17;;;28.10;62.60;;;;;;5053255;28;20509;-59
2023/08/14 08:54:10;;;;;;;3.27;2.27;;;28.30;61.80;;;;;;5053281;28;20444;-59
2023/08/14 08:56:37;;;;;;;5.80;2.40;;;28.50;60.20;;;;;;5053228;28;20495;-59
2023/08/14 08:59:05;;;;;;;10.03;2.70;;;28.70;57.70;;;;;;5053218;28;20441;-59
2023/08/14 09:01:31;;;;;;;6.50;2.73;;;28.90;55.50;;;;;;5053308;28;20473;-59
2023/08/14 09:03:58;;;;;;;5.63;3.07;;;28.90;55.00;;;;;;5054648;28;20774;-59
2023/08/14 09:06:25;;;;;;;7.50;3.40;;;29.00;54.80;;;;;;5057435;28;20559;-59
2023/08/14 09:08:51;;;;;;;6.20;3.03;;;29.20;55.80;;;;;;5057194;28;20483;-59
2023/08/14 09:11:19;;;;;;;3.90;2.70;;;29.50;55.80;;;;;;5057278;28;20461;-59
2023/08/14 09:13:46;;;;;;;4.53;2.67;;;29.70;55.50;;;;;;5057215;28;20463;-59
2023/08/14 09:16:15;;;;;;;4.30;2.57;;;29.90;54.80;;;;;;5057175;28;20444;-59
2023/08/14 09:18:43;;;;;;;5.73;2.97;;;30.20;54.60;;;;;;5056767;28;20977;-59
2023/08/14 09:21:09;;;;;;;4.93;2.73;;;30.50;53.00;;;;;;5056768;28;20472;-59
2023/08/14 09:23:38;;;;;;;5.70;2.90;;;30.90;52.00;;;;;;5057098;28;20451;-59
2023/08/14 09:26:05;;;;;;;6.30;3.37;;;31.30;50.90;;;;;;5056960;28;20449;-59
2023/08/14 09:28:34;;;;;;;6.47;2.87;;;31.50;49.10;;;;;;5057027;28;20480;-59
2023/08/14 09:31:07;;;;;;;6.83;2.57;;;31.70;47.60;;;;;;5056911;28;20471;-59
2023/08/14 09:33:37;;;;;;;5.00;2.40;;;31.70;47.00;;;;;;5056871;28;20481;-59
2023/08/14 09:36:05;;;;;;;5.63;2.53;;;31.70;47.00;;;;;;5056845;28;20429;-59
2023/08/14 09:38:32;;;;;;;7.10;2.77;;;31.70;47.10;;;;;;5056817;28;20441;-59
2023/08/14 09:41:00;;;;;;;6.03;2.10;;;31.60;46.40;;;;;;5056400;28;20464;-59
2023/08/14 09:43:29;;;;;;;4.37;2.40;;;31.50;44.50;;;;;;5056384;28;20942;-59
2023/08/14 09:45:59;;;;;;;6.73;2.17;;;31.10;43.10;;;;;;5056569;28;20443;-59
2023/08/14 09:48:40;;;;;;;5.43;2.23;;;30.80;43.10;;;;;;5056478;28;20465;-59
2023/08/14 09:51:11;;;;;;;7.13;2.40;;;30.50;43.50;;;;;;5056484;28;20514;-59
2023/08/14 09:53:44;;;;;;;3.53;2.47;;;30.40;43.90;;;;;;5056214;28;20953;-59
2023/08/14 09:56:12;;;;;;;3.80;1.80;;;30.20;45.10;;;;;;5056395;28;20857;-59
2023/08/14 09:58:39;;;;;;;5.00;1.93;;;30.20;45.00;;;;;;5056256;28;20437;-59
2023/08/14 10:01:08;;;;;;;3.50;2.30;;;30.30;44.50;;;;;;5056275;28;20555;-59
2023/08/14 10:03:35;;;;;;;4.37;1.70;;;30.50;44.70;;;;;;5056278;28;20456;-59
2023/08/14 10:06:03;;;;;;;3.63;2.20;;;30.90;44.50;;;;;;5056273;28;20441;-59
2023/08/14 10:08:34;;;;;;;4.33;2.00;;;31.30;43.10;;;;;;5055945;28;20504;-59
2023/08/14 10:11:03;;;;;;;4.20;2.00;;;31.50;41.20;;;;;;5055778;28;20974;-59
2023/08/14 10:13:30;;;;;;;3.77;2.37;;;31.80;40.90;;;;;;5056049;28;20451;-59
2023/08/14 10:16:03;;;;;;;6.97;2.07;;;32.10;39.00;;;;;;5056047;28;20518;-59
2023/08/14 10:18:34;;;;;;;6.23;2.20;;;32.30;39.20;;;;;;5056188;28;20428;-59
2023/08/14 10:21:03;;;;;;;8.70;2.13;;;32.70;40.80;;;;;;5055856;28;20469;-59
2023/08/14 10:23:30;;;;;;;3.80;2.23;;;33.10;37.20;;;;;;5055582;28;20935;-59
2023/08/14 10:25:57;;;;;;;4.17;2.20;;;33.10;36.90;;;;;;5055836;28;20437;-59
2023/08/14 10:28:25;;;;;;;4.20;2.07;;;33.40;36.10;;;;;;5055481;28;21014;-59
2023/08/14 10:30:52;;;;;;;5.97;2.20;;;33.70;37.00;;;;;;5055818;28;20469;-59
2023/08/14 10:33:20;;;;;;;4.20;2.60;;;34.20;37.30;;;;;;5055705;28;20792;-59
2023/08/14 10:35:51;;;;;;;3.70;2.13;;;34.80;34.70;;;;;;5055786;28;20202;-59
2023/08/14 10:38:19;;;;;;;2.83;2.00;;;35.50;33.60;;;;;;5055586;28;20194;-59
2023/08/14 10:40:53;;;;;;;3.55;2.08;;;36.00;31.30;;;;;;5055545;28;20222;-59
2023/08/14 10:43:25;;;;;;;4.57;2.20;;;36.60;30.30;;;;;;5055537;28;20567;-59
2023/08/14 10:45:52;;;;;;;4.82;2.08;;;37.20;29.90;;;;;;5055142;28;20187;-59
2023/08/14 10:48:19;;;;;;;4.70;2.17;;;37.80;28.00;;;;;;5055394;28;20218;-57
2023/08/14 10:50:57;;;;;;;2.85;1.88;;;38.10;28.00;;;;;;5055391;28;20219;-59
2023/08/14 10:53:24;;;;;;;2.92;1.70;;;38.60;26.80;;;;;;5055459;28;20209;-59
2023/08/14 10:55:51;;;;;;;5.05;2.17;;;39.00;26.30;;;;;;5055001;28;20691;-60
2023/08/14 10:58:46;;;;;;;8.25;2.10;;;39.40;26.20;;;;;;5055263;28;20297;-57
2023/08/14 11:01:13;;;;;;;7.05;2.60;;;40.00;25.80;;;;;;5054854;28;20588;-60
2023/08/14 11:04:04;;;;;;;4.40;2.20;;;40.40;25.00;;;;;;5055525;28;20233;-57
2023/08/14 11:07:02;;;;;;;4.63;1.77;;;40.50;24.60;;;;;;5055819;28;20195;-58
2023/08/14 11:09:31;;;;;;;4.53;2.22;;;40.70;24.70;;;;;;5056832;28;20203;-58
2023/08/14 11:12:05;;;;;;;3.08;1.90;;;41.00;24.00;;;;;;5055761;28;20229;-58
2023/08/14 11:14:32;;;;;;;10.25;2.00;;;41.10;23.50;;;;;;5055036;28;20182;-58
2023/08/14 11:16:59;;;;;;;5.43;2.17;;;41.10;24.20;;;;;;5054947;28;20202;-58
2023/08/14 11:19:26;;;;;;;3.25;1.75;;;41.50;24.10;;;;;;5054999;28;20202;-58
2023/08/14 11:21:54;;;;;;;6.68;2.30;;;41.70;23.10;;;;;;5054395;28;20234;-58
2023/08/14 11:24:20;;;;;;;4.25;2.40;;;41.60;22.70;;;;;;5055034;28;20202;-58
2023/08/14 11:26:47;;;;;;;5.25;2.30;;;41.40;23.80;;;;;;5054191;28;20568;-58
2023/08/14 11:29:14;;;;;;;4.30;2.08;;;41.30;23.40;;;;;;5054656;28;20226;-58
2023/08/14 11:31:44;;;;;;;5.47;2.20;;;41.20;23.60;;;;;;5054886;28;20226;-58
2023/08/14 11:34:11;;;;;;;6.40;2.10;;;41.10;23.80;;;;;;5054736;28;20226;-57
2023/08/14 11:36:41;;;;;;;4.18;2.20;;;41.30;24.00;;;;;;5054603;28;20214;-57
2023/08/14 11:39:10;;;;;;;4.03;2.47;;;40.90;23.80;;;;;;5054562;28;20187;-57
2023/08/14 11:41:37;;;;;;;4.50;2.42;;;40.50;24.90;;;;;;5054673;28;20272;-57
2023/08/14 11:44:04;;;;;;;5.30;2.35;;;40.60;25.30;;;;;;5054483;28;20210;-58
2023/08/14 11:46:31;;;;;;;2.97;1.90;;;40.70;25.50;;;;;;5054481;28;20203;-58
2023/08/14 11:48:58;;;;;;;5.32;1.80;;;41.00;24.70;;;;;;5054825;28;20696;-58
2023/08/14 11:51:25;;;;;;;3.55;2.28;;;41.30;24.60;;;;;;5054144;28;20226;-58
2023/08/14 11:53:53;;;;;;;2.70;1.98;;;40.70;24.20;;;;;;5069898;28;20565;-58
2023/08/14 11:56:21;;;;;;;4.90;2.30;;;39.60;25.60;;;;;;5074072;28;20550;-58
2023/08/14 11:58:48;;;;;;;3.72;1.90;;;38.80;27.20;;;;;;5074026;28;20206;-58
2023/08/14 12:01:15;;;;;;;4.38;2.20;;;38.30;27.90;;;;;;5073919;28;20593;-58
2023/08/14 12:03:42;;;;;;;4.30;1.75;;;38.00;28.50;;;;;;5074138;28;20226;-58
2023/08/14 12:06:09;;;;;;;5.82;2.58;;;38.20;28.40;;;;;;5073941;28;20241;-58
2023/08/14 12:08:36;;;;;;;6.80;2.70;;;38.70;27.90;;;;;;5073812;28;20225;-58
2023/08/14 12:11:02;;;;;;;5.00;2.15;;;39.20;27.70;;;;;;5073899;28;20221;-58
2023/08/14 12:13:33;;;;;;;4.13;2.45;;;40.00;26.90;;;;;;5073862;28;20686;-58
2023/08/14 12:16:06;;;;;;;6.28;2.50;;;40.50;25.40;;;;;;5073861;28;20182;-58
2023/08/14 12:18:33;;;;;;;5.78;2.15;;;40.90;25.10;;;;;;5073889;28;20189;-58
2023/08/14 12:20:59;;;;;;;3.97;1.90;;;41.40;25.50;;;;;;5073320;28;20237;-58
2023/08/14 12:23:26;;;;;;;3.78;2.20;;;42.10;25.60;;;;;;5073801;28;20196;-58
2023/08/14 12:25:54;;;;;;;5.88;2.28;;;42.80;23.80;;;;;;5073710;28;20202;-58
2023/08/14 12:28:21;;;;;;;3.28;2.00;;;42.90;23.60;;;;;;5073274;28;20629;-58
2023/08/14 12:30:49;;;;;;;2.88;1.90;;;43.00;23.70;;;;;;5073463;28;20668;-58
2023/08/14 12:33:16;;;;;;;6.13;2.00;;;42.90;24.30;;;;;;5073413;28;20250;-58
2023/08/14 12:35:43;;;;;;;2.38;1.60;;;42.50;24.10;;;;;;5073572;28;20205;-58
2023/08/14 12:38:10;;;;;;;5.03;1.98;;;42.20;25.60;;;;;;5072716;28;20221;-58
2023/08/14 12:40:37;;;;;;;3.95;2.17;;;42.20;25.90;;;;;;5073389;28;20252;-58
2023/08/14 12:43:04;;;;;;;7.32;1.98;;;42.20;25.10;;;;;;5073016;28;20730;-58
2023/08/14 12:45:31;;;;;;;3.90;2.20;;;42.40;24.80;;;;;;5073929;28;20251;-58
2023/08/14 12:47:59;;;;;;;2.80;1.85;;;43.00;23.90;;;;;;5072929;28;20206;-58